Time;durP1;ratioP1;P1;durP2;ratioP2;P2;SDS_P1;SDS_P2;PMS_P1;PMS_P2;Temp;Humidity;BMP_temperature;BMP_pressure;BME280_temperature;BME280_humidity;BME280_pressure;Samples;Min_cycle;Max_cycle;Signal;HPM_P1;HPM_P2
2022/07/18 00:01:28;;;;;;;2.50;1.30;;;;;;;;;;5016039;28;20782;-72
2022/07/18 00:03:53;;;;;;;2.60;1.25;;;;;;;;;;5033679;28;20017;-70
2022/07/18 00:06:18;;;;;;;4.43;1.50;;;;;;;;;;5033975;28;20056;-72
2022/07/18 00:08:43;;;;;;;2.60;1.40;;;;;;;;;;5034289;28;20266;-71
2022/07/18 00:11:09;;;;;;;4.13;1.43;;;;;;;;;;5033893;28;20258;-71
2022/07/18 00:13:34;;;;;;;4.53;1.40;;;;;;;;;;5033579;28;20289;-71
2022/07/18 00:15:59;;;;;;;3.87;1.37;;;;;;;;;;5033439;28;20393;-70
2022/07/18 00:18:24;;;;;;;3.92;1.40;;;;;;;;;;5033669;28;20270;-71
2022/07/18 00:20:50;;;;;;;4.13;1.48;;;;;;;;;;5033295;28;20025;-71
2022/07/18 00:23:15;;;;;;;2.10;1.20;;;;;;;;;;5034421;28;20029;-79
2022/07/18 00:25:40;;;;;;;1.80;1.08;;;;;;;;;;5040437;28;20324;-81
2022/07/18 00:28:05;;;;;;;3.97;1.37;;;;;;;;;;5040991;28;20526;-78
2022/07/18 00:30:31;;;;;;;3.90;1.40;;;;;;;;;;5041511;28;20605;-77
2022/07/18 00:32:56;;;;;;;3.67;1.50;;;;;;;;;;5041745;28;20622;-80
2022/07/18 00:35:21;;;;;;;3.63;1.40;;;;;;;;;;5040845;28;20463;-79
2022/07/18 00:37:46;;;;;;;3.72;1.35;;;;;;;;;;5042060;28;20030;-77
2022/07/18 00:40:12;;;;;;;2.72;1.40;;;;;;;;;;5023875;28;20052;-80
2022/07/18 00:42:37;;;;;;;4.28;1.60;;;;;;;;;;5041153;28;20025;-77
2022/07/18 00:45:03;;;;;;;11.02;1.80;;;;;;;;;;5042843;28;20022;-79
2022/07/18 00:47:28;;;;;;;2.15;1.20;;;;;;;;;;5041996;28;20036;-78
2022/07/18 00:49:53;;;;;;;3.83;1.50;;;;;;;;;;5041988;28;20057;-79
2022/07/18 00:52:19;;;;;;;3.55;1.67;;;;;;;;;;5043419;28;20112;-79
2022/07/18 00:54:44;;;;;;;3.17;1.60;;;;;;;;;;5043247;28;20029;-78
2022/07/18 00:57:09;;;;;;;3.58;1.60;;;;;;;;;;5043479;28;20088;-80
2022/07/18 01:02:19;;;;;;;2.80;1.63;;;;;;;;;;5043894;28;20040;-79
2022/07/18 01:04:44;;;;;;;3.17;1.50;;;;;;;;;;5042167;28;20025;-79
2022/07/18 01:07:10;;;;;;;5.32;1.30;;;;;;;;;;5042416;28;20345;-81
2022/07/18 01:09:35;;;;;;;2.08;1.30;;;;;;;;;;5043130;28;20057;-78
2022/07/18 01:12:02;;;;;;;3.22;1.30;;;;;;;;;;5043584;28;20032;-79
2022/07/18 01:14:27;;;;;;;5.45;1.45;;;;;;;;;;5041025;28;20029;-79
2022/07/18 01:16:52;;;;;;;4.25;1.58;;;;;;;;;;5038231;28;20067;-79
2022/07/18 01:19:18;;;;;;;4.13;1.70;;;;;;;;;;5041756;28;20051;-78
2022/07/18 01:21:43;;;;;;;9.27;1.50;;;;;;;;;;5036602;28;20362;-77
2022/07/18 01:24:08;;;;;;;4.90;1.60;;;;;;;;;;5037471;28;20286;-78
2022/07/18 01:26:33;;;;;;;4.10;1.40;;;;;;;;;;5037643;28;20431;-80
2022/07/18 01:28:59;;;;;;;2.38;1.40;;;;;;;;;;5040766;28;20021;-79
2022/07/18 01:31:24;;;;;;;3.80;1.35;;;;;;;;;;5042572;28;20045;-79
2022/07/18 01:33:54;;;;;;;3.33;1.50;;;;;;;;;;5042572;28;20119;-79
2022/07/18 01:36:19;;;;;;;2.58;1.55;;;;;;;;;;5041128;28;20270;-79
2022/07/18 01:38:44;;;;;;;2.97;1.70;;;;;;;;;;5042278;28;20026;-79
2022/07/18 01:41:09;;;;;;;5.43;2.10;;;;;;;;;;5025457;28;20089;-79
2022/07/18 01:43:40;;;;;;;5.20;1.77;;;;;;;;;;5043804;28;20297;-79
2022/07/18 01:46:05;;;;;;;3.50;2.00;;;;;;;;;;5025830;28;20259;-80
2022/07/18 01:48:30;;;;;;;4.57;2.17;;;;;;;;;;5044379;28;20025;-80
2022/07/18 01:50:56;;;;;;;4.32;2.00;;;;;;;;;;5042137;28;20034;-79
2022/07/18 01:53:21;;;;;;;5.20;2.13;;;;;;;;;;5042001;28;20053;-80
2022/07/18 01:55:47;;;;;;;4.75;2.20;;;;;;;;;;5034951;28;20363;-80
2022/07/18 01:58:12;;;;;;;4.15;2.28;;;;;;;;;;5043395;28;20068;-80
2022/07/18 02:00:38;;;;;;;5.18;2.38;;;;;;;;;;5043520;28;20057;-79
2022/07/18 02:03:03;;;;;;;6.15;2.35;;;;;;;;;;5043509;28;20486;-78
2022/07/18 02:05:28;;;;;;;7.13;2.93;;;;;;;;;;5041995;28;20021;-78
2022/07/18 02:07:53;;;;;;;7.15;3.00;;;;;;;;;;5040442;28;20258;-78
2022/07/18 02:10:20;;;;;;;7.40;2.40;;;;;;;;;;5041473;28;20057;-77
2022/07/18 02:12:46;;;;;;;9.32;2.53;;;;;;;;;;5028122;28;20671;-77
2022/07/18 02:15:12;;;;;;;3.65;2.40;;;;;;;;;;5044040;28;20057;-80
2022/07/18 02:17:38;;;;;;;5.20;2.30;;;;;;;;;;5026421;28;20029;-79
2022/07/18 02:20:05;;;;;;;4.07;2.25;;;;;;;;;;5043352;28;20025;-78
2022/07/18 02:22:31;;;;;;;8.48;2.33;;;;;;;;;;5026685;28;20044;-80
2022/07/18 02:24:56;;;;;;;4.53;2.60;;;;;;;;;;5046922;28;20025;-80
2022/07/18 02:27:21;;;;;;;7.05;2.80;;;;;;;;;;5044442;28;20036;-79
2022/07/18 02:29:47;;;;;;;5.50;2.60;;;;;;;;;;5046251;28;20021;-80
2022/07/18 02:32:13;;;;;;;5.68;2.90;;;;;;;;;;5045537;28;20033;-79
2022/07/18 02:34:38;;;;;;;8.90;3.63;;;;;;;;;;5046018;28;20035;-80
2022/07/18 02:37:04;;;;;;;10.10;3.77;;;;;;;;;;5045638;28;20052;-78
2022/07/18 02:39:29;;;;;;;10.38;4.20;;;;;;;;;;5046271;28;20275;-78
2022/07/18 02:41:55;;;;;;;11.98;4.90;;;;;;;;;;5046612;28;20021;-79
2022/07/18 02:44:20;;;;;;;12.15;5.00;;;;;;;;;;5046307;28;20103;-80
2022/07/18 02:46:46;;;;;;;9.75;5.18;;;;;;;;;;5038977;28;20025;-80
2022/07/18 02:49:26;;;;;;;10.45;5.45;;;;;;;;;;5039000;28;20025;-80
2022/07/18 02:51:59;;;;;;;9.43;5.10;;;;;;;;;;5044899;28;20474;-78
2022/07/18 02:54:25;;;;;;;13.30;5.37;;;;;;;;;;5029053;28;20521;-80
2022/07/18 02:56:51;;;;;;;10.95;5.32;;;;;;;;;;5046029;28;20052;-81
2022/07/18 02:59:17;;;;;;;19.80;5.63;;;;;;;;;;5046769;28;20029;-80
2022/07/18 03:01:42;;;;;;;10.75;5.78;;;;;;;;;;5045130;28;20482;-78
2022/07/18 03:04:07;;;;;;;14.25;6.25;;;;;;;;;;5043823;28;20052;-79
2022/07/18 03:06:33;;;;;;;11.40;6.45;;;;;;;;;;5046345;28;20049;-80
2022/07/18 03:08:58;;;;;;;15.82;5.72;;;;;;;;;;5028361;28;20022;-77
2022/07/18 03:11:23;;;;;;;13.00;5.57;;;;;;;;;;5043845;28;20117;-80
2022/07/18 03:13:49;;;;;;;10.68;5.80;;;;;;;;;;5044094;28;20299;-80
2022/07/18 03:16:14;;;;;;;14.20;6.60;;;;;;;;;;5046160;28;20425;-78
2022/07/18 03:18:39;;;;;;;15.43;6.83;;;;;;;;;;5028717;28;20029;-80
2022/07/18 03:21:04;;;;;;;15.93;7.03;;;;;;;;;;5046169;28;20262;-79
2022/07/18 03:23:30;;;;;;;15.27;6.75;;;;;;;;;;5046128;28;20060;-80
2022/07/18 03:25:55;;;;;;;14.52;6.97;;;;;;;;;;5045760;28;20437;-79
2022/07/18 03:28:20;;;;;;;13.03;7.93;;;;;;;;;;5046028;28;20017;-80
2022/07/18 03:30:45;;;;;;;16.27;7.22;;;;;;;;;;5027719;28;20255;-79
2022/07/18 03:33:11;;;;;;;14.67;7.37;;;;;;;;;;5046639;28;20030;-79
2022/07/18 03:35:36;;;;;;;18.38;8.05;;;;;;;;;;5044849;28;20349;-80
2022/07/18 03:38:01;;;;;;;17.35;8.52;;;;;;;;;;5045568;28;20063;-79
2022/07/18 03:40:26;;;;;;;16.05;8.30;;;;;;;;;;5027696;28;20048;-80
2022/07/18 03:42:51;;;;;;;20.73;8.60;;;;;;;;;;5045037;28;20060;-78
2022/07/18 03:45:17;;;;;;;15.52;8.13;;;;;;;;;;5043890;28;20262;-77
2022/07/18 03:47:42;;;;;;;16.58;8.05;;;;;;;;;;5043713;28;20489;-78
2022/07/18 03:50:08;;;;;;;15.90;8.00;;;;;;;;;;5044460;28;20052;-78
2022/07/18 03:52:33;;;;;;;18.75;8.50;;;;;;;;;;5043723;28;20255;-79
2022/07/18 03:55:01;;;;;;;16.70;7.93;;;;;;;;;;5044809;28;20029;-80
2022/07/18 03:57:26;;;;;;;14.55;7.72;;;;;;;;;;5044426;28;20259;-78
2022/07/18 03:59:51;;;;;;;16.48;8.32;;;;;;;;;;5043463;28;20038;-78
2022/07/18 04:02:17;;;;;;;16.43;7.77;;;;;;;;;;5042228;28;20040;-78
2022/07/18 04:04:42;;;;;;;16.50;7.57;;;;;;;;;;5042771;28;20267;-79
2022/07/18 04:07:07;;;;;;;16.33;6.40;;;;;;;;;;5043376;28;20262;-79
2022/07/18 04:09:32;;;;;;;14.57;6.20;;;;;;;;;;5039530;28;20358;-79
2022/07/18 04:11:57;;;;;;;14.70;6.43;;;;;;;;;;5041093;28;20297;-79
2022/07/18 04:14:23;;;;;;;12.55;6.25;;;;;;;;;;5023336;28;20128;-80
2022/07/18 04:16:48;;;;;;;16.00;5.83;;;;;;;;;;5040790;28;20037;-78
2022/07/18 04:19:14;;;;;;;12.70;4.70;;;;;;;;;;5043222;28;20287;-79
2022/07/18 04:21:39;;;;;;;10.13;4.68;;;;;;;;;;5043676;28;20033;-78
2022/07/18 04:24:04;;;;;;;10.90;4.13;;;;;;;;;;5043252;28;20021;-78
2022/07/18 04:26:30;;;;;;;8.15;3.75;;;;;;;;;;5043710;28;20061;-78
2022/07/18 04:28:55;;;;;;;9.60;4.10;;;;;;;;;;5042619;28;20021;-79
2022/07/18 04:31:20;;;;;;;10.40;4.37;;;;;;;;;;5044393;28;20029;-79
2022/07/18 04:33:45;;;;;;;9.63;4.15;;;;;;;;;;5043291;28;20262;-78
2022/07/18 04:36:11;;;;;;;9.07;4.20;;;;;;;;;;5042915;28;20364;-80
2022/07/18 04:38:37;;;;;;;12.40;4.20;;;;;;;;;;5043095;28;20274;-80
2022/07/18 04:41:06;;;;;;;8.63;4.60;;;;;;;;;;5042905;28;20029;-79
2022/07/18 04:43:31;;;;;;;11.10;4.50;;;;;;;;;;5045037;28;20058;-79
2022/07/18 04:45:57;;;;;;;8.55;3.88;;;;;;;;;;5045156;28;20052;-79
2022/07/18 04:48:22;;;;;;;8.77;4.38;;;;;;;;;;5044240;28;20037;-79
2022/07/18 04:50:47;;;;;;;10.68;4.90;;;;;;;;;;5042857;28;20029;-80
2022/07/18 04:53:13;;;;;;;12.80;5.60;;;;;;;;;;5044311;28;20048;-78
2022/07/18 04:55:38;;;;;;;12.65;5.97;;;;;;;;;;5036763;28;20324;-78
2022/07/18 04:58:03;;;;;;;12.05;5.88;;;;;;;;;;5043084;28;20044;-80
2022/07/18 05:00:29;;;;;;;16.67;7.20;;;;;;;;;;5043537;28;20029;-81
2022/07/18 05:02:56;;;;;;;16.00;6.60;;;;;;;;;;5042673;28;20039;-80
2022/07/18 05:05:23;;;;;;;13.13;6.30;;;;;;;;;;5043768;28;20017;-80
2022/07/18 05:07:51;;;;;;;13.52;6.13;;;;;;;;;;5043592;28;20442;-81
2022/07/18 05:10:19;;;;;;;18.67;6.70;;;;;;;;;;5044315;28;20075;-80
2022/07/18 05:12:47;;;;;;;19.83;6.10;;;;;;;;;;5044557;28;20028;-79
2022/07/18 05:15:14;;;;;;;12.05;6.30;;;;;;;;;;5043872;28;20029;-79
2022/07/18 05:17:40;;;;;;;10.73;5.85;;;;;;;;;;5043280;28;20034;-80
2022/07/18 05:20:07;;;;;;;16.90;6.03;;;;;;;;;;5043929;28;20072;-79
2022/07/18 05:22:33;;;;;;;13.75;6.35;;;;;;;;;;5043084;28;20096;-80
2022/07/18 05:24:59;;;;;;;18.75;6.32;;;;;;;;;;5024700;28;20513;-79
2022/07/18 05:27:24;;;;;;;12.70;5.38;;;;;;;;;;5043423;28;20084;-80
2022/07/18 05:29:49;;;;;;;16.23;5.90;;;;;;;;;;5043579;28;20061;-79
2022/07/18 05:32:15;;;;;;;10.43;5.25;;;;;;;;;;5042950;28;20289;-80
2022/07/18 05:34:40;;;;;;;12.40;4.57;;;;;;;;;;5044382;28;20135;-79
2022/07/18 05:37:06;;;;;;;11.55;4.60;;;;;;;;;;5042674;28;20026;-79
2022/07/18 05:39:31;;;;;;;10.55;4.78;;;;;;;;;;5042932;28;20025;-81
2022/07/18 05:41:56;;;;;;;12.47;4.53;;;;;;;;;;5042176;28;20032;-81
2022/07/18 05:44:21;;;;;;;10.85;3.78;;;;;;;;;;5041212;28;20270;-81
2022/07/18 05:46:47;;;;;;;8.97;4.40;;;;;;;;;;5042165;28;20129;-80
2022/07/18 05:49:14;;;;;;;12.73;4.55;;;;;;;;;;5044633;28;20290;-82
2022/07/18 05:51:39;;;;;;;9.32;4.10;;;;;;;;;;5044276;28;20029;-79
2022/07/18 05:54:05;;;;;;;12.27;4.20;;;;;;;;;;5045143;28;20036;-78
2022/07/18 05:56:30;;;;;;;9.00;3.93;;;;;;;;;;5044311;28;20086;-81
2022/07/18 05:58:55;;;;;;;8.63;3.17;;;;;;;;;;5044826;28;20286;-82
2022/07/18 06:01:20;;;;;;;6.38;3.40;;;;;;;;;;5045221;28;20047;-79
2022/07/18 06:03:47;;;;;;;7.83;3.13;;;;;;;;;;5044737;28;20056;-80
2022/07/18 06:06:13;;;;;;;8.95;2.97;;;;;;;;;;5044236;28;20487;-80
2022/07/18 06:08:38;;;;;;;6.70;2.78;;;;;;;;;;5043987;28;20029;-80
2022/07/18 06:11:06;;;;;;;6.35;2.65;;;;;;;;;;5045807;28;20030;-81
2022/07/18 06:13:32;;;;;;;9.27;3.45;;;;;;;;;;5028573;28;20048;-80
2022/07/18 06:15:57;;;;;;;5.00;2.20;;;;;;;;;;5045334;28;20084;-81
2022/07/18 06:18:22;;;;;;;5.50;2.00;;;;;;;;;;5043854;28;20025;-80
2022/07/18 06:20:47;;;;;;;8.20;2.10;;;;;;;;;;5044412;28;20369;-80
2022/07/18 06:23:12;;;;;;;4.47;1.67;;;;;;;;;;5045107;28;20251;-80
2022/07/18 06:25:38;;;;;;;3.63;1.70;;;;;;;;;;5047270;28;20262;-81
2022/07/18 06:28:03;;;;;;;5.13;1.93;;;;;;;;;;5048383;28;20257;-82
2022/07/18 06:30:28;;;;;;;5.70;1.70;;;;;;;;;;5027994;28;20350;-81
2022/07/18 06:32:53;;;;;;;3.67;1.67;;;;;;;;;;5045789;28;20021;-79
2022/07/18 06:35:19;;;;;;;4.27;1.60;;;;;;;;;;5045771;28;20273;-81
2022/07/18 06:37:44;;;;;;;3.72;1.42;;;;;;;;;;5046344;28;20336;-80
2022/07/18 06:40:10;;;;;;;5.90;1.77;;;;;;;;;;5045905;28;20151;-78
2022/07/18 06:42:35;;;;;;;4.00;1.38;;;;;;;;;;5045296;28;20029;-79
2022/07/18 06:45:00;;;;;;;5.30;1.60;;;;;;;;;;5046855;28;20040;-80
2022/07/18 06:47:26;;;;;;;5.53;1.80;;;;;;;;;;5047234;28;20258;-80
2022/07/18 06:49:51;;;;;;;4.35;1.70;;;;;;;;;;5032087;28;20338;-79
2022/07/18 06:52:16;;;;;;;3.50;1.42;;;;;;;;;;5030875;28;20022;-79
2022/07/18 06:54:42;;;;;;;4.85;2.10;;;;;;;;;;5042413;28;20034;-80
2022/07/18 06:57:09;;;;;;;4.03;1.70;;;;;;;;;;5045304;28;20049;-81
2022/07/18 06:59:35;;;;;;;3.65;1.70;;;;;;;;;;5049004;28;20450;-79
2022/07/18 07:02:00;;;;;;;4.20;1.45;;;;;;;;;;5056145;28;20016;-78
2022/07/18 07:04:25;;;;;;;4.32;1.48;;;;;;;;;;5058137;28;20029;-77
2022/07/18 07:06:50;;;;;;;5.80;1.83;;;;;;;;;;5058174;28;20036;-79
2022/07/18 07:09:16;;;;;;;4.82;1.73;;;;;;;;;;5057353;28;20033;-78
2022/07/18 07:11:41;;;;;;;6.63;1.90;;;;;;;;;;5058941;28;20026;-78
2022/07/18 07:14:06;;;;;;;2.10;1.63;;;;;;;;;;5058569;28;20267;-80
2022/07/18 07:16:31;;;;;;;7.83;1.77;;;;;;;;;;5058196;28;20274;-80
2022/07/18 07:18:57;;;;;;;7.00;1.70;;;;;;;;;;5058025;28;20270;-79
2022/07/18 07:21:22;;;;;;;5.23;1.90;;;;;;;;;;5056965;28;20029;-79
2022/07/18 07:23:47;;;;;;;5.17;1.80;;;;;;;;;;5057860;28;20246;-78
2022/07/18 07:26:12;;;;;;;3.73;1.57;;;;;;;;;;5039491;28;20262;-78
2022/07/18 07:28:37;;;;;;;5.88;1.80;;;;;;;;;;5057535;28;20025;-78
2022/07/18 07:31:03;;;;;;;8.27;2.70;;;;;;;;;;5057086;28;20033;-78
2022/07/18 07:33:28;;;;;;;5.43;1.70;;;;;;;;;;5057398;28;20250;-78
2022/07/18 07:35:53;;;;;;;31.27;2.63;;;;;;;;;;5056773;28;20109;-78
2022/07/18 07:38:19;;;;;;;5.87;1.43;;;;;;;;;;5055803;28;20305;-80
2022/07/18 07:40:45;;;;;;;2.35;1.50;;;;;;;;;;5041249;28;20251;-78
2022/07/18 07:43:13;;;;;;;2.70;1.40;;;;;;;;;;5041125;28;20100;-79
2022/07/18 07:45:39;;;;;;;3.78;1.33;;;;;;;;;;5040857;28;20025;-78
2022/07/18 07:48:06;;;;;;;6.60;1.77;;;;;;;;;;5025785;28;20384;-78
2022/07/18 07:50:31;;;;;;;4.38;1.50;;;;;;;;;;5025910;28;20066;-79
2022/07/18 07:52:58;;;;;;;6.57;1.30;;;;;;;;;;5043142;28;20180;-79
2022/07/18 07:55:23;;;;;;;4.68;1.70;;;;;;;;;;5037890;28;20137;-79
2022/07/18 07:57:49;;;;;;;13.70;2.20;;;;;;;;;;5024414;28;20021;-78
2022/07/18 08:00:14;;;;;;;10.30;1.33;;;;;;;;;;5025218;28;20076;-80
2022/07/18 08:02:51;;;;;;;3.65;1.30;;;;;;;;;;5041416;28;20528;-75
2022/07/18 08:05:16;;;;;;;4.38;1.17;;;;;;;;;;5040396;28;20386;-79
2022/07/18 08:07:41;;;;;;;5.05;1.40;;;;;;;;;;5039530;28;20029;-78
2022/07/18 08:10:07;;;;;;;4.63;1.30;;;;;;;;;;5040213;28;20017;-77
2022/07/18 08:12:32;;;;;;;5.32;1.30;;;;;;;;;;5021075;28;20254;-77
2022/07/18 08:14:57;;;;;;;2.93;1.23;;;;;;;;;;5038170;28;20048;-79
2022/07/18 08:17:23;;;;;;;3.13;0.98;;;;;;;;;;5039055;28;20350;-78
2022/07/18 08:19:48;;;;;;;2.93;1.33;;;;;;;;;;5039381;28;20125;-78
2022/07/18 08:22:13;;;;;;;9.57;1.40;;;;;;;;;;5040239;28;20250;-78
2022/07/18 08:24:38;;;;;;;2.97;1.27;;;;;;;;;;5020713;28;20408;-77
2022/07/18 08:27:04;;;;;;;6.38;1.13;;;;;;;;;;5038849;28;20628;-78
2022/07/18 08:29:29;;;;;;;2.47;1.08;;;;;;;;;;5038842;28;20022;-78
2022/07/18 08:31:54;;;;;;;5.00;1.40;;;;;;;;;;5038517;28;20440;-78
2022/07/18 08:34:19;;;;;;;4.10;1.37;;;;;;;;;;5037153;28;20262;-77
2022/07/18 08:36:45;;;;;;;5.80;1.30;;;;;;;;;;5035504;28;20258;-77
2022/07/18 08:39:10;;;;;;;10.18;1.20;;;;;;;;;;5036544;28;20278;-77
2022/07/18 08:41:37;;;;;;;4.95;1.05;;;;;;;;;;5038371;28;20025;-78
2022/07/18 08:44:02;;;;;;;2.78;1.15;;;;;;;;;;5037506;28;20036;-77
2022/07/18 08:46:28;;;;;;;6.32;1.60;;;;;;;;;;5037918;28;20036;-79
2022/07/18 08:48:55;;;;;;;4.45;1.30;;;;;;;;;;5037922;28;20056;-77
2022/07/18 08:51:22;;;;;;;3.17;1.05;;;;;;;;;;5041454;28;20017;-79
2022/07/18 08:53:48;;;;;;;4.22;1.40;;;;;;;;;;5025447;28;20114;-79
2022/07/18 08:56:13;;;;;;;4.22;1.10;;;;;;;;;;5022474;28;20474;-79
2022/07/18 08:58:38;;;;;;;3.65;1.08;;;;;;;;;;5039673;28;20537;-77
2022/07/18 09:01:04;;;;;;;2.42;1.00;;;;;;;;;;5038773;28;20108;-77
2022/07/18 09:03:30;;;;;;;4.78;1.10;;;;;;;;;;5022295;28;20025;-77
2022/07/18 09:06:04;;;;;;;6.32;1.40;;;;;;;;;;5039500;28;20025;-78
2022/07/18 09:08:30;;;;;;;3.72;1.10;;;;;;;;;;5039026;28;20025;-79
2022/07/18 09:10:58;;;;;;;4.70;1.10;;;;;;;;;;5038642;28;20406;-77
2022/07/18 09:13:29;;;;;;;8.25;1.17;;;;;;;;;;5038514;28;20530;-77
2022/07/18 09:15:58;;;;;;;2.35;0.90;;;;;;;;;;5038995;28;20029;-78
2022/07/18 09:18:31;;;;;;;3.53;0.98;;;;;;;;;;5038690;28;20097;-79
2022/07/18 09:21:04;;;;;;;3.92;1.15;;;;;;;;;;5020466;28;20071;-78
2022/07/18 09:23:31;;;;;;;13.23;1.17;;;;;;;;;;5037345;28;20026;-77
2022/07/18 09:25:57;;;;;;;4.32;1.20;;;;;;;;;;5020295;28;20033;-77
2022/07/18 09:28:22;;;;;;;3.05;1.20;;;;;;;;;;5037718;28;20503;-78
2022/07/18 09:30:47;;;;;;;1.83;1.20;;;;;;;;;;5038081;28;20045;-78
2022/07/18 09:33:12;;;;;;;3.30;0.93;;;;;;;;;;5040458;28;20322;-78
2022/07/18 09:35:46;;;;;;;3.70;1.10;;;;;;;;;;5038794;28;20285;-77
2022/07/18 09:38:16;;;;;;;3.97;1.02;;;;;;;;;;5038412;28;20076;-77
2022/07/18 09:40:45;;;;;;;8.35;1.27;;;;;;;;;;5038400;28;20152;-76
2022/07/18 09:43:15;;;;;;;3.65;1.20;;;;;;;;;;5040733;28;20081;-77
2022/07/18 09:45:50;;;;;;;7.03;1.00;;;;;;;;;;5038343;28;20029;-78
2022/07/18 09:48:27;;;;;;;2.25;1.08;;;;;;;;;;5020931;28;20025;-77
2022/07/18 09:51:04;;;;;;;5.07;1.00;;;;;;;;;;5039053;28;20030;-79
2022/07/18 09:53:41;;;;;;;6.80;1.08;;;;;;;;;;5037510;28;20026;-78
2022/07/18 09:56:09;;;;;;;2.60;1.20;;;;;;;;;;5037321;28;20068;-76
2022/07/18 09:58:49;;;;;;;6.70;1.40;;;;;;;;;;5018909;28;20128;-79
2022/07/18 10:01:15;;;;;;;2.97;1.00;;;;;;;;;;5038450;28;20112;-78
2022/07/18 10:03:40;;;;;;;2.20;1.10;;;;;;;;;;5039667;28;20553;-78
2022/07/18 10:06:05;;;;;;;2.97;0.90;;;;;;;;;;5019714;28;20033;-80
2022/07/18 10:08:32;;;;;;;3.72;1.10;;;;;;;;;;5037087;28;20333;-77
2022/07/18 10:10:59;;;;;;;1.77;1.00;;;;;;;;;;5021406;28;20021;-79
2022/07/18 10:13:26;;;;;;;3.05;1.13;;;;;;;;;;5037873;28;20025;-77
2022/07/18 10:15:52;;;;;;;3.13;1.15;;;;;;;;;;5020149;28;20025;-78
2022/07/18 10:18:20;;;;;;;2.53;1.20;;;;;;;;;;5038217;28;20036;-77
2022/07/18 10:20:49;;;;;;;1.98;1.00;;;;;;;;;;5036759;28;20025;-78
2022/07/18 10:23:21;;;;;;;10.30;1.00;;;;;;;;;;5037263;28;20368;-78
2022/07/18 10:26:14;;;;;;;6.32;1.38;;;;;;;;;;5038734;28;20036;-77
2022/07/18 10:28:54;;;;;;;1.42;0.82;;;;;;;;;;5036664;28;20055;-78
2022/07/18 10:31:20;;;;;;;4.35;1.10;;;;;;;;;;5038364;28;20026;-78
2022/07/18 10:33:48;;;;;;;2.80;0.95;;;;;;;;;;5040269;28;20029;-79
2022/07/18 10:36:15;;;;;;;3.17;0.90;;;;;;;;;;5039555;28;20026;-79
2022/07/18 10:39:10;;;;;;;6.50;1.15;;;;;;;;;;5039754;28;20052;-79
2022/07/18 10:41:38;;;;;;;2.60;1.10;;;;;;;;;;5043350;28;20017;-77
2022/07/18 10:44:31;;;;;;;2.25;1.00;;;;;;;;;;5041307;28;20021;-76
2022/07/18 10:47:02;;;;;;;4.38;1.15;;;;;;;;;;5041080;28;20067;-78
2022/07/18 10:49:49;;;;;;;4.05;1.20;;;;;;;;;;5041101;28;20075;-77
2022/07/18 10:52:23;;;;;;;4.20;1.10;;;;;;;;;;5041113;28;20344;-79
2022/07/18 10:55:22;;;;;;;4.75;1.20;;;;;;;;;;5039775;28;20390;-78
2022/07/18 10:57:47;;;;;;;3.55;1.02;;;;;;;;;;5038306;28;20091;-78
2022/07/18 11:00:15;;;;;;;2.23;1.10;;;;;;;;;;5041091;28;20029;-78
2022/07/18 11:02:43;;;;;;;4.80;1.27;;;;;;;;;;5040825;28;20025;-78
2022/07/18 11:05:26;;;;;;;3.55;1.23;;;;;;;;;;5041760;28;20083;-79
2022/07/18 11:08:13;;;;;;;2.95;1.10;;;;;;;;;;5041783;28;20371;-78
2022/07/18 11:10:40;;;;;;;3.65;1.30;;;;;;;;;;5039782;28;20031;-78
2022/07/18 11:13:37;;;;;;;3.08;1.10;;;;;;;;;;5039961;28;20025;-79
2022/07/18 11:16:09;;;;;;;6.68;1.13;;;;;;;;;;5038686;28;20091;-78
2022/07/18 11:18:40;;;;;;;2.63;1.00;;;;;;;;;;5041313;28;20104;-79
2022/07/18 11:21:25;;;;;;;5.03;1.17;;;;;;;;;;5040373;28;20029;-79
2022/07/18 11:23:52;;;;;;;3.45;1.17;;;;;;;;;;5023630;28;20470;-79
2022/07/18 11:26:20;;;;;;;3.30;0.85;;;;;;;;;;5040351;28;20471;-78
2022/07/18 11:28:48;;;;;;;1.75;1.00;;;;;;;;;;5023447;28;20057;-78
2022/07/18 11:31:14;;;;;;;1.50;1.00;;;;;;;;;;5022879;28;20091;-79
2022/07/18 11:33:43;;;;;;;2.70;1.10;;;;;;;;;;5021712;28;20025;-79
2022/07/18 11:36:11;;;;;;;2.42;1.20;;;;;;;;;;5032301;28;20029;-79
2022/07/18 11:38:39;;;;;;;5.28;1.13;;;;;;;;;;5039255;28;20029;-78
2022/07/18 11:41:05;;;;;;;5.82;1.30;;;;;;;;;;5041080;28;20039;-80
2022/07/18 11:43:31;;;;;;;2.83;1.25;;;;;;;;;;5039170;28;20100;-79
2022/07/18 11:46:07;;;;;;;3.28;1.15;;;;;;;;;;5038196;28;20032;-78
2022/07/18 11:48:34;;;;;;;3.90;1.30;;;;;;;;;;5039848;28;20170;-80
2022/07/18 11:51:00;;;;;;;4.22;1.33;;;;;;;;;;5039308;28;20025;-80
2022/07/18 11:53:26;;;;;;;3.20;1.10;;;;;;;;;;5040336;28;20025;-77
2022/07/18 11:55:55;;;;;;;7.55;1.75;;;;;;;;;;5021622;28;20021;-78
2022/07/18 11:58:22;;;;;;;5.53;1.13;;;;;;;;;;5040535;28;20025;-79
2022/07/18 12:00:47;;;;;;;3.17;1.20;;;;;;;;;;5039863;28;20067;-79
2022/07/18 12:03:19;;;;;;;1.92;1.20;;;;;;;;;;5022320;28;20021;-79
2022/07/18 12:05:50;;;;;;;6.47;1.40;;;;;;;;;;5041004;28;20045;-79
2022/07/18 12:08:24;;;;;;;2.45;1.30;;;;;;;;;;5040633;28;20025;-79
2022/07/18 12:11:21;;;;;;;3.85;1.20;;;;;;;;;;5040428;28;20498;-79
2022/07/18 12:13:51;;;;;;;2.58;1.25;;;;;;;;;;5040067;28;20067;-79
2022/07/18 12:16:32;;;;;;;3.90;1.27;;;;;;;;;;5021805;28;20021;-79
2022/07/18 12:19:02;;;;;;;3.03;1.30;;;;;;;;;;5039634;28;20482;-78
2022/07/18 12:21:54;;;;;;;9.13;1.20;;;;;;;;;;5039334;28;20072;-78
2022/07/18 12:24:35;;;;;;;2.63;1.10;;;;;;;;;;5038851;28;20044;-78
2022/07/18 12:27:17;;;;;;;2.85;1.30;;;;;;;;;;5039265;28;20073;-78
2022/07/18 12:30:07;;;;;;;8.10;1.10;;;;;;;;;;5039550;28;20024;-80
2022/07/18 12:32:57;;;;;;;3.20;1.10;;;;;;;;;;5039613;28;20483;-78
2022/07/18 12:35:31;;;;;;;2.58;1.40;;;;;;;;;;5038546;28;20024;-78
2022/07/18 12:38:00;;;;;;;5.60;1.50;;;;;;;;;;5039068;28;20030;-79
2022/07/18 12:40:40;;;;;;;5.38;1.20;;;;;;;;;;5039295;28;20021;-77
2022/07/18 12:43:14;;;;;;;6.43;1.20;;;;;;;;;;5038971;28;20040;-81
2022/07/18 12:45:40;;;;;;;2.28;1.15;;;;;;;;;;5040117;28;20022;-79
2022/07/18 12:48:08;;;;;;;3.67;1.25;;;;;;;;;;5040052;28;20032;-78
2022/07/18 12:50:33;;;;;;;3.60;1.30;;;;;;;;;;5039356;28;20030;-79
2022/07/18 12:52:59;;;;;;;2.75;1.15;;;;;;;;;;5041289;28;20029;-80
2022/07/18 12:55:25;;;;;;;3.97;1.40;;;;;;;;;;5039528;28;20554;-80
2022/07/18 12:57:50;;;;;;;4.40;1.38;;;;;;;;;;5040307;28;20318;-80
2022/07/18 13:00:16;;;;;;;4.93;1.27;;;;;;;;;;5039536;28;20123;-79
2022/07/18 13:02:45;;;;;;;2.47;1.30;;;;;;;;;;5041260;28;20025;-79
2022/07/18 13:05:11;;;;;;;5.97;1.30;;;;;;;;;;5023232;28;20022;-78
2022/07/18 13:07:36;;;;;;;1.77;1.20;;;;;;;;;;5023417;28;20498;-79
2022/07/18 13:10:02;;;;;;;2.65;1.38;;;;;;;;;;5041082;28;20032;-79
2022/07/18 13:12:27;;;;;;;3.78;1.10;;;;;;;;;;5041100;28;20037;-78
2022/07/18 13:14:53;;;;;;;2.28;1.30;;;;;;;;;;5040159;28;20526;-78
2022/07/18 13:17:18;;;;;;;3.33;1.30;;;;;;;;;;5040909;28;20076;-78
2022/07/18 13:19:44;;;;;;;2.93;1.20;;;;;;;;;;5040909;28;20099;-79
2022/07/18 13:22:10;;;;;;;5.97;1.33;;;;;;;;;;5039879;28;20022;-77
2022/07/18 13:24:36;;;;;;;2.90;1.27;;;;;;;;;;5041030;28;20478;-79
2022/07/18 13:27:05;;;;;;;1.98;1.30;;;;;;;;;;5040691;28;20057;-78
2022/07/18 13:29:30;;;;;;;5.22;1.58;;;;;;;;;;5040101;28;20028;-78
2022/07/18 13:31:56;;;;;;;3.50;1.40;;;;;;;;;;5041907;28;20120;-78
2022/07/18 13:34:22;;;;;;;6.07;1.55;;;;;;;;;;5039771;28;20406;-80
2022/07/18 13:36:49;;;;;;;1.98;1.10;;;;;;;;;;5040444;28;20052;-79
2022/07/18 13:39:14;;;;;;;4.38;1.20;;;;;;;;;;5039796;28;20037;-78
2022/07/18 13:41:39;;;;;;;6.27;1.30;;;;;;;;;;5021882;28;20045;-77
2022/07/18 13:44:05;;;;;;;4.30;1.40;;;;;;;;;;5039438;28;20262;-78
2022/07/18 13:46:30;;;;;;;3.45;1.45;;;;;;;;;;5038782;28;20334;-78
2022/07/18 13:48:55;;;;;;;2.58;1.10;;;;;;;;;;5037616;28;20026;-80
2022/07/18 13:51:20;;;;;;;6.33;1.20;;;;;;;;;;5020831;28;20108;-79
2022/07/18 13:53:46;;;;;;;4.13;1.30;;;;;;;;;;5039383;28;20262;-78
2022/07/18 13:56:11;;;;;;;4.30;1.10;;;;;;;;;;5022034;28;20039;-79
2022/07/18 13:58:36;;;;;;;3.03;0.90;;;;;;;;;;5039593;28;20265;-79
2022/07/18 14:01:02;;;;;;;4.00;1.20;;;;;;;;;;5039893;28;20032;-80
2022/07/18 14:03:27;;;;;;;5.20;1.17;;;;;;;;;;5039604;28;20037;-79
2022/07/18 14:05:52;;;;;;;6.63;1.00;;;;;;;;;;5039269;28;20458;-78
2022/07/18 14:08:18;;;;;;;1.73;1.17;;;;;;;;;;5043169;28;20063;-80
2022/07/18 14:10:43;;;;;;;2.57;1.30;;;;;;;;;;5042045;28;20053;-78
2022/07/18 14:13:09;;;;;;;4.28;1.23;;;;;;;;;;5042667;28;20597;-79
2022/07/18 14:15:34;;;;;;;2.63;1.20;;;;;;;;;;5042343;28;20390;-79
2022/07/18 14:18:00;;;;;;;1.90;1.10;;;;;;;;;;5043674;28;20344;-79
2022/07/18 14:20:25;;;;;;;3.78;1.27;;;;;;;;;;5044027;28;20305;-79
2022/07/18 14:22:51;;;;;;;2.63;1.30;;;;;;;;;;5041713;28;20033;-79
2022/07/18 14:25:17;;;;;;;3.63;1.20;;;;;;;;;;5042196;28;20048;-78
2022/07/18 14:27:43;;;;;;;3.65;1.40;;;;;;;;;;5042370;28;20491;-79
2022/07/18 14:30:11;;;;;;;2.55;1.10;;;;;;;;;;5043328;28;20093;-78
2022/07/18 14:32:37;;;;;;;3.15;1.10;;;;;;;;;;5043240;28;20048;-79
2022/07/18 14:35:03;;;;;;;2.83;1.30;;;;;;;;;;5042194;28;20030;-78
2022/07/18 14:37:32;;;;;;;1.90;1.10;;;;;;;;;;5042561;28;20081;-79
2022/07/18 14:39:57;;;;;;;2.90;1.27;;;;;;;;;;5043882;28;20498;-79
2022/07/18 14:42:24;;;;;;;5.33;1.40;;;;;;;;;;5043170;28;20037;-78
2022/07/18 14:44:49;;;;;;;2.97;1.40;;;;;;;;;;5043767;28;20263;-79